Main page
METAR-TAF:

METAR-TAF

Airports :

Treviso Airport

Treviso, Italy

latitude: 45-39N, longitude: 012-11E, elevation: 18 m

Current weather observation

The report was made 35 minutes ago, at 14:50 UTC
Wind 4 kt from the East/Northeast, varying between Northeast and East
Temperature 19°C
Humidity 43%
Pressure 1020 hPa
Visibility 10 km or more
no clouds below 1500 m and no cumulonimbus

METAR: LIPH 221450Z 07004KT 040V100 CAVOK 19/06 Q1020

Time: 17:25 (15:25 UTC)

Forecast

The report was made 4 hours and 25 minutes ago, at 11:00 UTC
Forecast valid from 22 at 12 UTC to 23 at 12 UTC
Wind 8 kt from the East/Northeast
Visibility 10 km or more
Scattered clouds at a height of 3000 ft

TAF: LIPH 221100Z 2212/2312 06008KT 9999 SCT030

Weather observations and forecasts of more than 4000 airports (METAR and TAF reports).

The available stations are represented by yellow and red dots on the map.

Hover mouse over dot to see the name of the station.

Then click to see weather observations and forecasts.

To change the map : click on the green buttons with a black cross to zoom in, on the green button with a dash to zoom out, or on the green arrows for adjacent maps.


METAR-TAF: